sensor_id;sensor_type;location;lat;lon;timestamp;pressure;altitude;pressure_sealevel;temperature;humidity
71465;BME280;59274;49.874;9.154;2023-07-09T00:02:25;100517.97;;;20.45;88.31
71465;BME280;59274;49.874;9.154;2023-07-09T00:04:51;100523.75;;;20.51;88.99
71465;BME280;59274;49.874;9.154;2023-07-09T00:07:26;100517.53;;;20.47;89.30
71465;BME280;59274;49.874;9.154;2023-07-09T00:09:53;100524.16;;;20.33;90.58
71465;BME280;59274;49.874;9.154;2023-07-09T00:12:19;100522.69;;;20.28;90.64
71465;BME280;59274;49.874;9.154;2023-07-09T00:14:45;100526.06;;;20.36;89.30
71465;BME280;59274;49.874;9.154;2023-07-09T00:17:16;100525.44;;;20.28;89.25
71465;BME280;59274;49.874;9.154;2023-07-09T00:19:43;100527.69;;;20.17;89.63
71465;BME280;59274;49.874;9.154;2023-07-09T00:22:16;100528.97;;;20.13;90.41
71465;BME280;59274;49.874;9.154;2023-07-09T00:24:47;100527.25;;;20.03;91.32
71465;BME280;59274;49.874;9.154;2023-07-09T00:27:14;100526.13;;;20.00;91.88
71465;BME280;59274;49.874;9.154;2023-07-09T00:29:42;100529.91;;;20.06;91.29
71465;BME280;59274;49.874;9.154;2023-07-09T00:32:15;100524.75;;;20.08;91.56
71465;BME280;59274;49.874;9.154;2023-07-09T00:34:44;100525.16;;;19.90;91.81
71465;BME280;59274;49.874;9.154;2023-07-09T00:37:18;100530.66;;;19.90;91.50
71465;BME280;59274;49.874;9.154;2023-07-09T00:39:45;100531.03;;;19.92;91.04
71465;BME280;59274;49.874;9.154;2023-07-09T00:42:15;100529.88;;;19.90;90.54
71465;BME280;59274;49.874;9.154;2023-07-09T00:44:47;100540.75;;;19.97;90.16
71465;BME280;59274;49.874;9.154;2023-07-09T00:47:22;100536.53;;;19.92;90.65
71465;BME280;59274;49.874;9.154;2023-07-09T00:50:03;100535.91;;;19.85;90.33
71465;BME280;59274;49.874;9.154;2023-07-09T00:52:51;100541.78;;;19.87;90.12
71465;BME280;59274;49.874;9.154;2023-07-09T00:55:23;100540.75;;;19.81;90.46
71465;BME280;59274;49.874;9.154;2023-07-09T00:57:54;100543.66;;;19.74;90.85
71465;BME280;59274;49.874;9.154;2023-07-09T01:00:36;100541.75;;;19.71;91.94
71465;BME280;59274;49.874;9.154;2023-07-09T01:03:38;100542.00;;;19.76;91.66
71465;BME280;59274;49.874;9.154;2023-07-09T01:06:09;100552.63;;;19.78;92.13
71465;BME280;59274;49.874;9.154;2023-07-09T01:08:37;100547.25;;;19.71;91.72
71465;BME280;59274;49.874;9.154;2023-07-09T01:11:18;100550.00;;;19.71;92.19
71465;BME280;59274;49.874;9.154;2023-07-09T01:13:56;100545.44;;;19.64;92.86
71465;BME280;59274;49.874;9.154;2023-07-09T01:16:25;100549.31;;;19.67;93.18
71465;BME280;59274;49.874;9.154;2023-07-09T01:18:53;100552.50;;;19.65;93.92
71465;BME280;59274;49.874;9.154;2023-07-09T01:21:19;100549.75;;;19.65;94.54
71465;BME280;59274;49.874;9.154;2023-07-09T01:23:46;100553.44;;;19.59;95.12
71465;BME280;59274;49.874;9.154;2023-07-09T01:26:15;100555.41;;;19.58;95.69
71465;BME280;59274;49.874;9.154;2023-07-09T01:28:41;100559.00;;;19.55;95.59
71465;BME280;59274;49.874;9.154;2023-07-09T01:31:09;100556.25;;;19.55;95.40
71465;BME280;59274;49.874;9.154;2023-07-09T01:33:34;100557.53;;;19.50;95.02
71465;BME280;59274;49.874;9.154;2023-07-09T01:36:00;100549.09;;;19.38;93.19
71465;BME280;59274;49.874;9.154;2023-07-09T01:38:28;100556.66;;;19.34;92.80
71465;BME280;59274;49.874;9.154;2023-07-09T01:40:59;100557.69;;;19.40;92.47
71465;BME280;59274;49.874;9.154;2023-07-09T01:43:28;100554.41;;;19.48;92.84
71465;BME280;59274;49.874;9.154;2023-07-09T01:45:54;100564.28;;;19.46;93.88
71465;BME280;59274;49.874;9.154;2023-07-09T01:48:24;100551.34;;;19.43;94.49
71465;BME280;59274;49.874;9.154;2023-07-09T01:50:50;100548.97;;;19.45;94.67
71465;BME280;59274;49.874;9.154;2023-07-09T01:53:19;100560.03;;;19.41;95.79
71465;BME280;59274;49.874;9.154;2023-07-09T01:55:49;100553.06;;;19.37;96.62
71465;BME280;59274;49.874;9.154;2023-07-09T01:58:15;100557.66;;;19.43;96.40
71465;BME280;59274;49.874;9.154;2023-07-09T02:00:42;100559.97;;;19.45;96.57
71465;BME280;59274;49.874;9.154;2023-07-09T02:03:07;100560.25;;;19.31;97.35
71465;BME280;59274;49.874;9.154;2023-07-09T02:05:35;100565.91;;;19.43;96.99
71465;BME280;59274;49.874;9.154;2023-07-09T02:08:02;100565.53;;;19.41;97.62
71465;BME280;59274;49.874;9.154;2023-07-09T02:10:28;100572.84;;;19.32;98.86
71465;BME280;59274;49.874;9.154;2023-07-09T02:12:53;100584.69;;;19.29;99.63
71465;BME280;59274;49.874;9.154;2023-07-09T02:15:19;100579.88;;;19.33;97.72
71465;BME280;59274;49.874;9.154;2023-07-09T02:17:45;100577.75;;;19.21;98.33
71465;BME280;59274;49.874;9.154;2023-07-09T02:20:11;100572.97;;;19.25;97.41
71465;BME280;59274;49.874;9.154;2023-07-09T02:22:37;100579.03;;;19.16;96.97
71465;BME280;59274;49.874;9.154;2023-07-09T02:25:04;100573.78;;;19.02;97.18
71465;BME280;59274;49.874;9.154;2023-07-09T02:27:31;100575.03;;;18.97;97.71
71465;BME280;59274;49.874;9.154;2023-07-09T02:29:57;100580.53;;;18.97;97.05
71465;BME280;59274;49.874;9.154;2023-07-09T02:32:25;100577.38;;;18.99;97.61
71465;BME280;59274;49.874;9.154;2023-07-09T02:34:54;100586.97;;;18.91;97.28
71465;BME280;59274;49.874;9.154;2023-07-09T02:37:22;100579.91;;;18.90;96.89
71465;BME280;59274;49.874;9.154;2023-07-09T02:39:49;100588.47;;;18.95;96.82
71465;BME280;59274;49.874;9.154;2023-07-09T02:42:18;100588.72;;;18.81;96.59
71465;BME280;59274;49.874;9.154;2023-07-09T02:44:44;100589.19;;;18.76;95.82
71465;BME280;59274;49.874;9.154;2023-07-09T02:47:10;100589.78;;;18.64;96.74
71465;BME280;59274;49.874;9.154;2023-07-09T02:49:36;100593.09;;;18.52;97.77
71465;BME280;59274;49.874;9.154;2023-07-09T02:52:02;100593.88;;;18.52;98.39
71465;BME280;59274;49.874;9.154;2023-07-09T02:54:28;100590.63;;;18.61;98.53
71465;BME280;59274;49.874;9.154;2023-07-09T02:56:54;100600.94;;;18.53;99.86
71465;BME280;59274;49.874;9.154;2023-07-09T02:59:19;100599.72;;;18.58;99.56
71465;BME280;59274;49.874;9.154;2023-07-09T03:01:45;100597.38;;;18.56;99.55
71465;BME280;59274;49.874;9.154;2023-07-09T03:04:12;100606.47;;;18.50;99.61
71465;BME280;59274;49.874;9.154;2023-07-09T03:06:37;100609.72;;;18.45;99.57
71465;BME280;59274;49.874;9.154;2023-07-09T03:09:04;100600.28;;;18.46;99.66
71465;BME280;59274;49.874;9.154;2023-07-09T03:11:30;100602.47;;;18.31;99.06
71465;BME280;59274;49.874;9.154;2023-07-09T03:13:57;100600.91;;;18.30;99.15
71465;BME280;59274;49.874;9.154;2023-07-09T03:16:23;100602.97;;;18.22;99.35
71465;BME280;59274;49.874;9.154;2023-07-09T03:18:51;100602.94;;;18.26;99.96
71465;BME280;59274;49.874;9.154;2023-07-09T03:21:16;100595.66;;;18.39;99.65
71465;BME280;59274;49.874;9.154;2023-07-09T03:23:42;100602.75;;;18.36;99.29
71465;BME280;59274;49.874;9.154;2023-07-09T03:26:07;100604.03;;;18.32;99.81
71465;BME280;59274;49.874;9.154;2023-07-09T03:28:32;100599.72;;;18.31;99.73
71465;BME280;59274;49.874;9.154;2023-07-09T03:30:58;100608.00;;;18.27;99.78
71465;BME280;59274;49.874;9.154;2023-07-09T03:33:24;100603.44;;;18.17;100.00
71465;BME280;59274;49.874;9.154;2023-07-09T03:35:51;100617.13;;;18.21;100.00
71465;BME280;59274;49.874;9.154;2023-07-09T03:38:17;100609.97;;;18.27;100.00
71465;BME280;59274;49.874;9.154;2023-07-09T03:40:42;100615.47;;;18.27;100.00
71465;BME280;59274;49.874;9.154;2023-07-09T03:43:08;100611.84;;;18.33;100.00
71465;BME280;59274;49.874;9.154;2023-07-09T03:45:36;100616.94;;;18.35;100.00
71465;BME280;59274;49.874;9.154;2023-07-09T03:48:02;100612.97;;;18.36;100.00
71465;BME280;59274;49.874;9.154;2023-07-09T03:50:27;100614.94;;;18.35;100.00
71465;BME280;59274;49.874;9.154;2023-07-09T03:52:53;100619.78;;;18.28;100.00
71465;BME280;59274;49.874;9.154;2023-07-09T03:55:18;100619.78;;;18.28;100.00
71465;BME280;59274;49.874;9.154;2023-07-09T03:57:44;100617.03;;;18.28;100.00
71465;BME280;59274;49.874;9.154;2023-07-09T04:00:11;100622.44;;;18.35;100.00
71465;BME280;59274;49.874;9.154;2023-07-09T04:02:39;100623.97;;;18.36;100.00
71465;BME280;59274;49.874;9.154;2023-07-09T04:05:06;100620.94;;;18.30;100.00
71465;BME280;59274;49.874;9.154;2023-07-09T04:07:34;100618.91;;;18.34;100.00
71465;BME280;59274;49.874;9.154;2023-07-09T04:10:00;100623.69;;;18.30;100.00
71465;BME280;59274;49.874;9.154;2023-07-09T04:12:25;100627.09;;;18.38;100.00
71465;BME280;59274;49.874;9.154;2023-07-09T04:14:51;100632.50;;;18.45;100.00
71465;BME280;59274;49.874;9.154;2023-07-09T04:17:16;100624.78;;;18.36;100.00
71465;BME280;59274;49.874;9.154;2023-07-09T04:19:42;100630.69;;;18.35;100.00
71465;BME280;59274;49.874;9.154;2023-07-09T04:22:10;100633.38;;;18.38;100.00
71465;BME280;59274;49.874;9.154;2023-07-09T04:24:35;100638.88;;;18.38;100.00
71465;BME280;59274;49.874;9.154;2023-07-09T04:27:01;100630.75;;;18.31;99.80
71465;BME280;59274;49.874;9.154;2023-07-09T04:29:29;100639.03;;;18.55;98.99
71465;BME280;59274;49.874;9.154;2023-07-09T04:31:55;100651.88;;;18.65;98.46
71465;BME280;59274;49.874;9.154;2023-07-09T04:34:20;100645.06;;;18.73;98.61
71465;BME280;59274;49.874;9.154;2023-07-09T04:36:46;100643.03;;;18.77;99.14
71465;BME280;59274;49.874;9.154;2023-07-09T04:39:11;100641.78;;;18.82;99.62
71465;BME280;59274;49.874;9.154;2023-07-09T04:41:37;100629.16;;;18.84;100.00
71465;BME280;59274;49.874;9.154;2023-07-09T04:44:02;100631.84;;;18.88;100.00
71465;BME280;59274;49.874;9.154;2023-07-09T04:46:28;100637.91;;;19.02;99.84
71465;BME280;59274;49.874;9.154;2023-07-09T04:48:53;100635.81;;;19.10;99.37
71465;BME280;59274;49.874;9.154;2023-07-09T04:51:19;100638.75;;;19.19;99.28
71465;BME280;59274;49.874;9.154;2023-07-09T04:53:45;100639.06;;;19.25;98.24
71465;BME280;59274;49.874;9.154;2023-07-09T04:56:11;100641.34;;;19.30;97.89
71465;BME280;59274;49.874;9.154;2023-07-09T04:58:36;100642.00;;;19.37;96.45
71465;BME280;59274;49.874;9.154;2023-07-09T05:01:02;100638.88;;;19.35;95.73
71465;BME280;59274;49.874;9.154;2023-07-09T05:03:28;100643.47;;;19.42;95.68
71465;BME280;59274;49.874;9.154;2023-07-09T05:05:54;100647.53;;;19.57;94.49
71465;BME280;59274;49.874;9.154;2023-07-09T05:08:19;100652.34;;;19.73;92.30
71465;BME280;59274;49.874;9.154;2023-07-09T05:10:48;100650.38;;;19.73;92.55
71465;BME280;59274;49.874;9.154;2023-07-09T05:13:15;100653.03;;;19.77;92.71
71465;BME280;59274;49.874;9.154;2023-07-09T05:15:45;100652.84;;;19.87;91.52
71465;BME280;59274;49.874;9.154;2023-07-09T05:18:15;100651.66;;;19.88;92.05
71465;BME280;59274;49.874;9.154;2023-07-09T05:20:41;100650.09;;;19.87;91.61
71465;BME280;59274;49.874;9.154;2023-07-09T05:23:08;100651.66;;;19.88;91.67
71465;BME280;59274;49.874;9.154;2023-07-09T05:25:34;100644.63;;;19.84;90.26
71465;BME280;59274;49.874;9.154;2023-07-09T05:28:00;100642.16;;;19.89;90.90
71465;BME280;59274;49.874;9.154;2023-07-09T05:30:26;100642.50;;;19.91;90.45
71465;BME280;59274;49.874;9.154;2023-07-09T05:32:51;100643.75;;;20.07;89.59
71465;BME280;59274;49.874;9.154;2023-07-09T05:35:19;100650.69;;;20.15;89.83
71465;BME280;59274;49.874;9.154;2023-07-09T05:37:44;100649.16;;;20.30;88.77
71465;BME280;59274;49.874;9.154;2023-07-09T05:40:10;100641.81;;;20.43;87.49
71465;BME280;59274;49.874;9.154;2023-07-09T05:42:35;100650.06;;;20.43;87.65
71465;BME280;59274;49.874;9.154;2023-07-09T05:45:01;100645.25;;;20.47;86.50
71465;BME280;59274;49.874;9.154;2023-07-09T05:47:26;100653.19;;;20.61;85.66
71465;BME280;59274;49.874;9.154;2023-07-09T05:49:52;100643.34;;;20.60;85.38
71465;BME280;59274;49.874;9.154;2023-07-09T05:52:20;100647.78;;;20.74;85.79
71465;BME280;59274;49.874;9.154;2023-07-09T05:54:48;100643.44;;;20.89;84.68
71465;BME280;59274;49.874;9.154;2023-07-09T05:57:14;100645.44;;;20.73;84.77
71465;BME280;59274;49.874;9.154;2023-07-09T05:59:39;100643.00;;;20.91;84.23
71465;BME280;59274;49.874;9.154;2023-07-09T06:02:10;100648.09;;;20.92;83.91
71465;BME280;59274;49.874;9.154;2023-07-09T06:04:35;100648.09;;;21.08;82.94
71465;BME280;59274;49.874;9.154;2023-07-09T06:07:01;100651.19;;;21.10;82.69
71465;BME280;59274;49.874;9.154;2023-07-09T06:09:28;100654.72;;;21.27;81.67
71465;BME280;59274;49.874;9.154;2023-07-09T06:11:53;100658.38;;;21.24;82.45
71465;BME280;59274;49.874;9.154;2023-07-09T06:14:18;100656.28;;;21.28;81.55
71465;BME280;59274;49.874;9.154;2023-07-09T06:16:44;100657.75;;;21.33;81.26
71465;BME280;59274;49.874;9.154;2023-07-09T06:19:09;100657.22;;;21.38;80.59
71465;BME280;59274;49.874;9.154;2023-07-09T06:21:35;100654.69;;;21.43;79.34
71465;BME280;59274;49.874;9.154;2023-07-09T06:24:00;100659.94;;;21.54;79.22
71465;BME280;59274;49.874;9.154;2023-07-09T06:26:26;100663.19;;;21.65;78.85
71465;BME280;59274;49.874;9.154;2023-07-09T06:28:52;100668.19;;;21.83;78.74
71465;BME280;59274;49.874;9.154;2023-07-09T06:31:17;100657.38;;;21.88;78.00
71465;BME280;59274;49.874;9.154;2023-07-09T06:33:44;100663.84;;;21.98;78.08
71465;BME280;59274;49.874;9.154;2023-07-09T06:36:09;100667.41;;;22.11;76.72
71465;BME280;59274;49.874;9.154;2023-07-09T06:38:35;100672.50;;;22.13;75.84
71465;BME280;59274;49.874;9.154;2023-07-09T06:41:00;100671.84;;;22.21;75.88
71465;BME280;59274;49.874;9.154;2023-07-09T06:43:26;100679.50;;;22.30;76.04
71465;BME280;59274;49.874;9.154;2023-07-09T06:45:56;100674.63;;;22.47;74.74
71465;BME280;59274;49.874;9.154;2023-07-09T06:48:27;100681.63;;;22.51;74.85
71465;BME280;59274;49.874;9.154;2023-07-09T06:50:54;100678.50;;;22.62;74.65
71465;BME280;59274;49.874;9.154;2023-07-09T06:53:21;100677.97;;;22.80;72.84
71465;BME280;59274;49.874;9.154;2023-07-09T06:55:46;100673.00;;;22.87;72.30
71465;BME280;59274;49.874;9.154;2023-07-09T06:58:17;100674.66;;;22.85;72.28
71465;BME280;59274;49.874;9.154;2023-07-09T07:00:43;100675.28;;;23.01;72.33
71465;BME280;59274;49.874;9.154;2023-07-09T07:03:09;100670.38;;;23.06;73.32
71465;BME280;59274;49.874;9.154;2023-07-09T07:05:34;100668.41;;;23.06;71.78
71465;BME280;59274;49.874;9.154;2023-07-09T07:08:02;100663.06;;;23.12;70.56
71465;BME280;59274;49.874;9.154;2023-07-09T07:10:27;100667.72;;;23.15;71.65
71465;BME280;59274;49.874;9.154;2023-07-09T07:12:53;100665.78;;;23.24;71.27
71465;BME280;59274;49.874;9.154;2023-07-09T07:15:19;100666.97;;;23.36;70.26
71465;BME280;59274;49.874;9.154;2023-07-09T07:17:45;100661.03;;;23.47;69.77
71465;BME280;59274;49.874;9.154;2023-07-09T07:20:12;100656.31;;;23.69;68.76
71465;BME280;59274;49.874;9.154;2023-07-09T07:22:38;100656.22;;;24.03;66.92
71465;BME280;59274;49.874;9.154;2023-07-09T07:25:05;100653.44;;;24.03;66.98
71465;BME280;59274;49.874;9.154;2023-07-09T07:27:31;100654.53;;;24.06;67.34
71465;BME280;59274;49.874;9.154;2023-07-09T07:29:56;100658.44;;;24.17;66.75
71465;BME280;59274;49.874;9.154;2023-07-09T07:32:23;100657.31;;;24.28;64.64
71465;BME280;59274;49.874;9.154;2023-07-09T07:34:48;100656.25;;;24.34;64.43
71465;BME280;59274;49.874;9.154;2023-07-09T07:37:15;100649.56;;;24.63;64.76
71465;BME280;59274;49.874;9.154;2023-07-09T07:39:41;100652.66;;;24.65;64.56
71465;BME280;59274;49.874;9.154;2023-07-09T07:42:07;100644.63;;;24.67;64.80
71465;BME280;59274;49.874;9.154;2023-07-09T07:44:33;100643.41;;;24.68;64.89
71465;BME280;59274;49.874;9.154;2023-07-09T07:46:58;100645.97;;;24.93;64.30
71465;BME280;59274;49.874;9.154;2023-07-09T07:49:24;100645.84;;;25.15;63.43
71465;BME280;59274;49.874;9.154;2023-07-09T07:51:49;100636.25;;;25.34;61.78
71465;BME280;59274;49.874;9.154;2023-07-09T07:54:14;100634.25;;;25.34;62.30
71465;BME280;59274;49.874;9.154;2023-07-09T07:56:43;100629.75;;;25.37;62.73
71465;BME280;59274;49.874;9.154;2023-07-09T07:59:08;100639.19;;;25.49;61.67
71465;BME280;59274;49.874;9.154;2023-07-09T08:01:34;100643.03;;;25.51;61.12
71465;BME280;59274;49.874;9.154;2023-07-09T08:04:02;100640.41;;;25.57;60.56
71465;BME280;59274;49.874;9.154;2023-07-09T08:06:28;100634.41;;;25.58;60.51
71465;BME280;59274;49.874;9.154;2023-07-09T08:08:53;100637.81;;;25.62;60.09
71465;BME280;59274;49.874;9.154;2023-07-09T08:11:19;100632.38;;;25.68;59.79
71465;BME280;59274;49.874;9.154;2023-07-09T08:13:44;100629.59;;;25.77;59.59
71465;BME280;59274;49.874;9.154;2023-07-09T08:16:10;100630.50;;;25.92;59.70
71465;BME280;59274;49.874;9.154;2023-07-09T08:18:37;100631.66;;;26.09;59.21
71465;BME280;59274;49.874;9.154;2023-07-09T08:21:03;100624.47;;;26.36;58.20
71465;BME280;59274;49.874;9.154;2023-07-09T08:23:28;100629.22;;;26.44;58.79
71465;BME280;59274;49.874;9.154;2023-07-09T08:25:59;100634.25;;;26.64;57.73
71465;BME280;59274;49.874;9.154;2023-07-09T08:28:25;100629.19;;;26.77;57.46
71465;BME280;59274;49.874;9.154;2023-07-09T08:30:52;100628.50;;;26.92;56.65
71465;BME280;59274;49.874;9.154;2023-07-09T08:33:18;100625.53;;;27.19;55.20
71465;BME280;59274;49.874;9.154;2023-07-09T08:35:43;100624.00;;;27.33;53.38
71465;BME280;59274;49.874;9.154;2023-07-09T08:38:09;100620.84;;;27.40;53.85
71465;BME280;59274;49.874;9.154;2023-07-09T08:40:40;100615.78;;;27.53;52.09
71465;BME280;59274;49.874;9.154;2023-07-09T08:46:29;100619.06;;;27.95;47.23
71465;BME280;59274;49.874;9.154;2023-07-09T08:49:02;100611.06;;;28.03;46.54
71465;BME280;59274;49.874;9.154;2023-07-09T08:51:38;100602.28;;;28.10;46.68
71465;BME280;59274;49.874;9.154;2023-07-09T08:54:10;100612.41;;;28.22;46.46
71465;BME280;59274;49.874;9.154;2023-07-09T08:56:40;100608.38;;;28.43;45.99
71465;BME280;59274;49.874;9.154;2023-07-09T08:59:08;100605.28;;;28.56;43.71
71465;BME280;59274;49.874;9.154;2023-07-09T09:01:50;100607.09;;;28.59;43.80
71465;BME280;59274;49.874;9.154;2023-07-09T09:04:22;100606.78;;;28.57;43.72
71465;BME280;59274;49.874;9.154;2023-07-09T09:07:13;100611.50;;;28.66;45.56
71465;BME280;59274;49.874;9.154;2023-07-09T09:10:02;100613.09;;;28.72;45.45
71465;BME280;59274;49.874;9.154;2023-07-09T09:12:33;100612.16;;;28.96;45.00
71465;BME280;59274;49.874;9.154;2023-07-09T09:15:08;100606.06;;;29.17;45.35
71465;BME280;59274;49.874;9.154;2023-07-09T09:17:38;100598.78;;;29.26;43.90
71465;BME280;59274;49.874;9.154;2023-07-09T09:20:09;100602.41;;;29.32;44.09
71465;BME280;59274;49.874;9.154;2023-07-09T09:22:50;100604.78;;;29.65;43.13
71465;BME280;59274;49.874;9.154;2023-07-09T09:25:31;100595.81;;;29.86;41.59
71465;BME280;59274;49.874;9.154;2023-07-09T09:27:59;100591.13;;;29.78;42.23
71465;BME280;59274;49.874;9.154;2023-07-09T09:30:25;100600.31;;;29.78;42.19
71465;BME280;59274;49.874;9.154;2023-07-09T09:35:39;100595.69;;;30.01;40.90
71465;BME280;59274;49.874;9.154;2023-07-09T09:38:15;100586.97;;;29.93;41.74
71465;BME280;59274;49.874;9.154;2023-07-09T09:40:41;100587.06;;;30.05;42.29
71465;BME280;59274;49.874;9.154;2023-07-09T09:43:15;100587.91;;;30.16;41.42
71465;BME280;59274;49.874;9.154;2023-07-09T09:45:43;100587.25;;;30.32;40.80
71465;BME280;59274;49.874;9.154;2023-07-09T09:48:27;100597.53;;;30.47;40.48
71465;BME280;59274;49.874;9.154;2023-07-09T09:50:53;100592.31;;;30.71;39.92
71465;BME280;59274;49.874;9.154;2023-07-09T09:53:21;100591.84;;;30.78;39.50
71465;BME280;59274;49.874;9.154;2023-07-09T09:55:48;100596.34;;;31.24;39.01
71465;BME280;59274;49.874;9.154;2023-07-09T09:58:16;100593.06;;;31.31;39.35
71465;BME280;59274;49.874;9.154;2023-07-09T10:00:48;100594.59;;;31.26;38.63
71465;BME280;59274;49.874;9.154;2023-07-09T10:03:14;100598.41;;;31.23;39.11
71465;BME280;59274;49.874;9.154;2023-07-09T10:05:44;100591.28;;;31.33;39.65
71465;BME280;59274;49.874;9.154;2023-07-09T10:08:30;100593.59;;;31.40;39.07
71465;BME280;59274;49.874;9.154;2023-07-09T10:11:24;100590.53;;;31.44;38.57
71465;BME280;59274;49.874;9.154;2023-07-09T10:13:56;100595.41;;;31.55;38.08
71465;BME280;59274;49.874;9.154;2023-07-09T10:16:38;100595.38;;;31.49;37.47
71465;BME280;59274;49.874;9.154;2023-07-09T10:19:24;100596.91;;;31.50;38.66
71465;BME280;59274;49.874;9.154;2023-07-09T10:27:44;100583.94;;;31.97;36.83
71465;BME280;59274;49.874;9.154;2023-07-09T10:30:26;100585.72;;;32.17;35.88
71465;BME280;59274;49.874;9.154;2023-07-09T10:33:13;100581.63;;;32.23;37.01
71465;BME280;59274;49.874;9.154;2023-07-09T10:40:54;100566.16;;;32.63;36.03
71465;BME280;59274;49.874;9.154;2023-07-09T10:43:30;100562.31;;;32.72;33.86
71465;BME280;59274;49.874;9.154;2023-07-09T10:46:02;100557.25;;;32.48;35.33
71465;BME280;59274;49.874;9.154;2023-07-09T10:51:00;100559.00;;;32.68;34.40
71465;BME280;59274;49.874;9.154;2023-07-09T10:53:43;100568.94;;;32.80;34.94
71465;BME280;59274;49.874;9.154;2023-07-09T10:56:14;100565.56;;;32.87;31.70
71465;BME280;59274;49.874;9.154;2023-07-09T11:01:46;100547.66;;;32.85;33.00
71465;BME280;59274;49.874;9.154;2023-07-09T11:04:29;100542.00;;;32.90;32.67
71465;BME280;59274;49.874;9.154;2023-07-09T11:06:57;100547.63;;;32.90;32.39
71465;BME280;59274;49.874;9.154;2023-07-09T11:09:44;100541.81;;;33.18;33.22
71465;BME280;59274;49.874;9.154;2023-07-09T11:12:15;100524.31;;;33.36;33.11
71465;BME280;59274;49.874;9.154;2023-07-09T11:17:26;100526.47;;;33.55;32.57
71465;BME280;59274;49.874;9.154;2023-07-09T11:19:59;100529.09;;;33.47;32.17
71465;BME280;59274;49.874;9.154;2023-07-09T11:27:31;100523.16;;;34.10;31.53
71465;BME280;59274;49.874;9.154;2023-07-09T11:30:18;100529.91;;;34.26;32.21
71465;BME280;59274;49.874;9.154;2023-07-09T11:32:47;100516.88;;;34.23;30.19
71465;BME280;59274;49.874;9.154;2023-07-09T11:35:22;100515.41;;;34.16;30.37
71465;BME280;59274;49.874;9.154;2023-07-09T11:37:48;100512.28;;;34.20;30.85
71465;BME280;59274;49.874;9.154;2023-07-09T11:40:14;100515.38;;;34.41;29.89
71465;BME280;59274;49.874;9.154;2023-07-09T11:42:59;100516.78;;;34.53;29.77
71465;BME280;59274;49.874;9.154;2023-07-09T11:45:31;100511.78;;;34.83;30.83
71465;BME280;59274;49.874;9.154;2023-07-09T11:48:02;100510.97;;;35.20;30.18
71465;BME280;59274;49.874;9.154;2023-07-09T11:50:35;100502.53;;;35.52;30.26
71465;BME280;59274;49.874;9.154;2023-07-09T11:55:41;100495.47;;;35.59;29.33
71465;BME280;59274;49.874;9.154;2023-07-09T11:58:14;100504.88;;;35.93;28.72
71465;BME280;59274;49.874;9.154;2023-07-09T12:00:42;100498.72;;;36.21;28.02
71465;BME280;59274;49.874;9.154;2023-07-09T12:03:15;100493.78;;;36.48;28.09
71465;BME280;59274;49.874;9.154;2023-07-09T12:05:48;100495.97;;;36.89;28.24
71465;BME280;59274;49.874;9.154;2023-07-09T12:08:15;100493.41;;;37.12;26.83
71465;BME280;59274;49.874;9.154;2023-07-09T12:10:42;100492.94;;;37.21;26.49
71465;BME280;59274;49.874;9.154;2023-07-09T12:13:11;100494.09;;;37.46;26.08
71465;BME280;59274;49.874;9.154;2023-07-09T12:15:39;100491.53;;;37.56;25.87
71465;BME280;59274;49.874;9.154;2023-07-09T12:18:15;100488.38;;;37.88;26.28
71465;BME280;59274;49.874;9.154;2023-07-09T12:20:47;100487.81;;;37.89;24.26
71465;BME280;59274;49.874;9.154;2023-07-09T12:23:30;100474.13;;;38.09;24.06
71465;BME280;59274;49.874;9.154;2023-07-09T12:26:00;100470.22;;;38.19;23.45
71465;BME280;59274;49.874;9.154;2023-07-09T12:28:27;100462.38;;;38.40;24.62
71465;BME280;59274;49.874;9.154;2023-07-09T12:30:53;100462.41;;;38.48;24.63
71465;BME280;59274;49.874;9.154;2023-07-09T12:33:24;100465.44;;;38.43;24.69
71465;BME280;59274;49.874;9.154;2023-07-09T12:35:58;100449.06;;;38.71;24.13
71465;BME280;59274;49.874;9.154;2023-07-09T12:38:27;100448.50;;;38.88;23.00
71465;BME280;59274;49.874;9.154;2023-07-09T12:40:54;100447.75;;;38.88;23.51
71465;BME280;59274;49.874;9.154;2023-07-09T12:43:31;100445.75;;;39.19;23.65
71465;BME280;59274;49.874;9.154;2023-07-09T12:45:58;100438.16;;;39.13;23.51
71465;BME280;59274;49.874;9.154;2023-07-09T12:48:28;100443.84;;;39.44;23.93
71465;BME280;59274;49.874;9.154;2023-07-09T12:50:56;100440.06;;;39.57;23.77
71465;BME280;59274;49.874;9.154;2023-07-09T12:53:25;100434.34;;;39.72;22.73
71465;BME280;59274;49.874;9.154;2023-07-09T12:55:55;100429.34;;;40.03;23.13
71465;BME280;59274;49.874;9.154;2023-07-09T12:58:24;100420.13;;;39.72;22.90
71465;BME280;59274;49.874;9.154;2023-07-09T13:00:52;100422.00;;;39.77;23.23
71465;BME280;59274;49.874;9.154;2023-07-09T13:03:29;100417.06;;;39.77;23.42
71465;BME280;59274;49.874;9.154;2023-07-09T13:05:57;100408.16;;;39.73;23.14
71465;BME280;59274;49.874;9.154;2023-07-09T13:08:28;100412.91;;;39.86;21.66
71465;BME280;59274;49.874;9.154;2023-07-09T13:10:54;100409.59;;;40.05;22.05
71465;BME280;59274;49.874;9.154;2023-07-09T13:13:23;100399.28;;;40.17;21.18
71465;BME280;59274;49.874;9.154;2023-07-09T13:15:55;100402.50;;;38.90;21.93
71465;BME280;59274;49.874;9.154;2023-07-09T13:18:23;100387.72;;;38.91;22.64
71465;BME280;59274;49.874;9.154;2023-07-09T13:20:50;100390.22;;;39.17;21.79
71465;BME280;59274;49.874;9.154;2023-07-09T13:23:17;100379.56;;;38.88;22.42
71465;BME280;59274;49.874;9.154;2023-07-09T13:25:43;100375.63;;;39.13;22.92
71465;BME280;59274;49.874;9.154;2023-07-09T13:28:19;100371.63;;;39.39;22.60
71465;BME280;59274;49.874;9.154;2023-07-09T13:30:46;100379.34;;;39.84;21.66
71465;BME280;59274;49.874;9.154;2023-07-09T13:33:12;100366.91;;;40.45;21.97